Impacts TAF Board
For situational awareness. Not to be used for flight planning purposes.
IDs:

KJFK - New York/Kennedy Int, NY, US

Issued at 1804 UTC 12 Dec 2018
Updated at 1934 UTC 12 Dec 2018
Potential Impact None Slight Moderate High
Time<<13/20Z 13/21Z 13/22Z 13/23Z 14/00Z 14/01Z 14/02Z 14/03Z 14/04Z 14/05Z 14/06Z 14/07Z 14/08Z
Type PRVL PRVL PRVL PRVL
VIS 6 6 6 6
CIG 15 15 15 15
Cover OVC OVC OVC OVC
FltCat MVFR MVFR MVFR MVFR
WX -DZ -DZ -DZ -DZ
WDir 100 100 100 100
WSpd 10 10 10 10
WGst -- -- -- --
Raw TAF
KJFK 121804Z 1218/1324 31012G18KT P6SM BKN040
  FM122000 30011KT P6SM SCT050 SCT250
  TEMPO 1220/1222 BKN040
  FM130400 04005KT P6SM FEW030 BKN200
  FM130900 08007KT P6SM SCT025 BKN050
  FM131100 09007KT P6SM BKN025 BKN040
  PROB30 1312/1315 4SM -SN BKN025
  FM131500 10010KT 6SM -RASN BKN015 OVC040
  FM131700 10010KT 6SM -DZ OVC015


METAR Board
Radar Display
Forecast Discussion
For situational awareness. Not to be used for flight planning purposes.